createdAt,value
2018-03-02T00:00:47.933Z,17.70
2018-03-02T00:05:53.585Z,15.52
2018-03-02T00:08:23.207Z,15.98
2018-03-02T00:10:51.441Z,16.65
2018-03-02T00:13:20.428Z,16.15
2018-03-02T00:15:48.672Z,17.27
2018-03-02T00:18:17.677Z,18.75
2018-03-02T00:20:45.969Z,16.23
2018-03-02T00:23:14.217Z,17.00
2018-03-02T00:25:42.462Z,18.55
2018-03-02T00:28:14.280Z,17.17
2018-03-02T00:30:42.519Z,17.62
2018-03-02T00:33:12.273Z,17.25
2018-03-02T00:35:41.940Z,17.30
2018-03-02T00:38:10.569Z,18.05
2018-03-02T00:40:38.809Z,17.42
2018-03-02T00:43:08.044Z,17.92
2018-03-02T00:45:37.635Z,16.62
2018-03-02T00:48:05.772Z,17.55
2018-03-02T00:50:36.663Z,19.08
2018-03-02T00:53:05.182Z,18.27
2018-03-02T00:55:33.421Z,17.40
2018-03-02T00:58:03.479Z,18.62
2018-03-02T01:00:33.145Z,18.27
2018-03-02T01:03:02.145Z,15.88
2018-03-02T01:08:05.408Z,17.92
2018-03-02T01:10:34.786Z,18.85
2018-03-02T01:13:03.032Z,18.10
2018-03-02T01:15:32.447Z,19.20
2018-03-02T01:18:01.457Z,17.08
2018-03-02T01:20:30.457Z,19.48
2018-03-02T01:22:58.749Z,16.62
2018-03-02T01:25:26.991Z,20.42
2018-03-02T01:27:55.231Z,17.85
2018-03-02T01:30:24.031Z,17.95
2018-03-02T01:32:52.276Z,18.15
2018-03-02T01:35:21.871Z,19.92
2018-03-02T01:37:50.036Z,19.17
2018-03-02T01:40:19.623Z,18.50
2018-03-02T01:42:47.749Z,18.80
2018-03-02T01:45:17.555Z,19.60
2018-03-02T01:47:45.801Z,19.70
2018-03-02T01:50:14.809Z,19.85
2018-03-02T01:52:43.549Z,18.20
2018-03-02T01:55:12.932Z,19.77
2018-03-02T01:57:42.308Z,18.87
2018-03-02T02:00:10.610Z,20.62
2018-03-02T02:02:39.794Z,20.75
2018-03-02T02:05:08.424Z,18.67
2018-03-02T02:07:38.115Z,19.50
2018-03-02T02:10:07.116Z,20.25
2018-03-02T02:12:35.398Z,19.02
2018-03-02T02:15:03.896Z,19.60
2018-03-02T02:17:32.141Z,19.80
2018-03-02T02:20:00.381Z,20.80
2018-03-02T02:22:30.076Z,20.35
2018-03-02T02:24:58.352Z,19.70
2018-03-02T02:27:27.320Z,18.95
2018-03-02T02:29:55.974Z,21.62
2018-03-02T02:32:24.217Z,21.80
2018-03-02T02:34:52.867Z,20.60
2018-03-02T02:37:22.996Z,21.60
2018-03-02T02:39:52.153Z,19.60
2018-03-02T02:42:20.397Z,21.20
2018-03-02T02:44:49.329Z,19.08
2018-03-02T02:47:17.571Z,22.65
2018-03-02T02:49:46.228Z,20.52
2018-03-02T02:52:16.641Z,22.87
2018-03-02T02:54:45.527Z,21.30
2018-03-02T02:57:14.900Z,20.02
2018-03-02T02:59:43.714Z,20.62
2018-03-02T03:02:11.967Z,21.00
2018-03-02T03:04:41.166Z,22.20
2018-03-02T03:07:09.468Z,23.05
2018-03-02T03:09:37.708Z,21.95
2018-03-02T03:12:05.956Z,20.52
2018-03-02T03:14:34.393Z,20.35
2018-03-02T03:17:03.791Z,21.67
2018-03-02T03:19:32.428Z,22.80
2018-03-02T03:22:00.995Z,19.92
2018-03-02T03:24:29.247Z,22.50
2018-03-02T03:26:58.263Z,22.67
2018-03-02T03:29:27.920Z,21.95
2018-03-02T03:31:56.159Z,22.98
2018-03-02T03:34:24.411Z,21.23
2018-03-02T03:36:53.744Z,22.40
2018-03-02T03:39:21.980Z,20.27
2018-03-02T03:41:50.620Z,20.98
2018-03-02T03:44:19.073Z,23.00
2018-03-02T03:46:47.313Z,22.62
2018-03-02T03:49:16.903Z,22.08
2018-03-02T03:51:46.796Z,20.98
2018-03-02T03:54:15.431Z,22.27
2018-03-02T03:56:44.436Z,21.37
2018-03-02T03:59:14.513Z,22.05
2018-03-02T04:01:42.752Z,24.23
2018-03-02T04:04:11.006Z,23.55
2018-03-02T04:06:40.342Z,23.92
2018-03-02T04:09:08.584Z,22.50
2018-03-02T04:11:36.839Z,25.95
2018-03-02T04:14:05.222Z,22.50
2018-03-02T04:16:34.224Z,22.83
2018-03-02T04:19:02.456Z,23.08
2018-03-02T04:21:32.203Z,23.92
2018-03-02T04:24:00.716Z,22.17
2018-03-02T04:26:28.956Z,21.02
2018-03-02T04:28:57.357Z,25.12
2018-03-02T04:31:25.611Z,24.17
2018-03-02T04:33:55.218Z,23.12
2018-03-02T04:36:23.399Z,25.15
2018-03-02T04:38:51.631Z,25.20
2018-03-02T04:41:20.651Z,24.58
2018-03-02T04:43:49.522Z,23.95
2018-03-02T04:46:17.768Z,24.02
2018-03-02T04:48:47.360Z,21.80
2018-03-02T04:53:50.776Z,23.12
2018-03-02T04:56:19.027Z,23.87
2018-03-02T04:58:47.259Z,22.70
2018-03-02T05:01:17.137Z,24.87
2018-03-02T05:03:45.369Z,23.27
2018-03-02T05:06:14.739Z,24.73
2018-03-02T05:08:43.363Z,24.10
2018-03-02T05:11:11.641Z,26.17
2018-03-02T05:13:39.844Z,24.15
2018-03-02T05:16:09.000Z,25.60
2018-03-02T05:18:37.254Z,23.12
2018-03-02T05:21:05.528Z,26.08
2018-03-02T05:23:34.853Z,24.33
2018-03-02T05:26:03.485Z,25.00
2018-03-02T05:28:32.125Z,25.42
2018-03-02T05:31:02.036Z,25.40
2018-03-02T05:33:30.148Z,26.33
2018-03-02T05:35:59.892Z,24.30
2018-03-02T05:41:05.322Z,27.35
2018-03-02T05:43:33.561Z,27.05
2018-03-02T05:46:01.796Z,25.27
2018-03-02T05:48:32.921Z,24.75
2018-03-02T05:51:01.180Z,26.62
2018-03-02T05:53:30.768Z,25.30
2018-03-02T05:55:58.917Z,22.30
2018-03-02T05:58:27.153Z,26.90
2018-03-02T06:00:55.396Z,25.17
2018-03-02T06:03:25.193Z,26.30
2018-03-02T06:05:53.431Z,25.75
2018-03-02T06:08:21.667Z,26.58
2018-03-02T06:10:52.808Z,24.23
2018-03-02T06:13:22.561Z,27.30
2018-03-02T06:15:50.800Z,28.35
2018-03-02T06:18:19.120Z,27.65
2018-03-02T06:20:47.757Z,27.87
2018-03-02T06:23:17.346Z,26.65
2018-03-02T06:25:47.459Z,26.45
2018-03-02T06:28:16.348Z,29.15
2018-03-02T06:30:45.928Z,28.08
2018-03-02T06:33:14.666Z,25.10
2018-03-02T06:35:42.906Z,27.27
2018-03-02T06:38:12.496Z,27.17
2018-03-02T06:40:40.844Z,29.05
2018-03-02T06:43:09.084Z,27.83
2018-03-02T06:45:37.320Z,29.52
2018-03-02T06:48:07.725Z,30.60
2018-03-02T06:50:35.961Z,27.42
2018-03-02T06:53:04.196Z,28.52
2018-03-02T06:55:33.523Z,27.80
2018-03-02T06:58:02.157Z,26.73
2018-03-02T07:00:30.393Z,28.40
2018-03-02T07:02:59.993Z,29.75
2018-03-02T07:05:28.229Z,28.05
2018-03-02T07:07:56.465Z,29.20
2018-03-02T07:10:26.388Z,26.45
2018-03-02T07:12:54.984Z,26.73
2018-03-02T07:15:23.289Z,28.00
2018-03-02T07:17:51.821Z,28.33
2018-03-02T07:20:20.460Z,25.77
2018-03-02T07:22:48.700Z,28.60
2018-03-02T07:25:18.624Z,27.33
2018-03-02T07:27:47.256Z,30.30
2018-03-02T07:30:15.893Z,28.48
2018-03-02T07:35:18.664Z,27.50
2018-03-02T07:37:46.896Z,28.40
2018-03-02T07:40:15.533Z,28.42
2018-03-02T07:42:44.080Z,28.23
2018-03-02T07:45:12.319Z,31.48
2018-03-02T07:47:40.553Z,31.62
2018-03-02T07:50:10.820Z,30.20
2018-03-02T07:52:40.559Z,30.73
2018-03-02T07:55:10.172Z,31.75
2018-03-02T07:57:38.464Z,30.33
2018-03-02T08:00:06.692Z,27.67
2018-03-02T08:02:36.432Z,29.90
2018-03-02T08:05:07.303Z,33.03
2018-03-02T08:07:36.759Z,28.50
2018-03-02T08:10:04.875Z,29.27
2018-03-02T08:12:33.304Z,33.40
2018-03-02T08:15:07.727Z,30.70
2018-03-02T08:17:36.736Z,28.95
2018-03-02T08:20:04.974Z,29.65
2018-03-02T08:22:33.204Z,29.15
2018-03-02T08:25:03.416Z,29.40
2018-03-02T08:27:33.012Z,30.67
2018-03-02T08:30:02.492Z,33.80
2018-03-02T08:32:32.145Z,32.17
2018-03-02T08:35:01.728Z,30.67
2018-03-02T08:37:29.837Z,31.52
2018-03-02T08:39:58.140Z,33.00
2018-03-02T08:42:26.376Z,32.40
2018-03-02T08:44:55.372Z,30.42
2018-03-02T08:47:23.913Z,28.95
2018-03-02T08:49:52.182Z,30.90
2018-03-02T08:52:21.144Z,29.55
2018-03-02T08:57:23.265Z,31.10
2018-03-02T08:59:51.505Z,31.70
2018-03-02T09:02:19.736Z,31.48
2018-03-02T09:04:48.587Z,30.95
2018-03-02T09:07:17.209Z,30.08
2018-03-02T09:09:45.448Z,31.42
2018-03-02T09:12:15.181Z,31.17
2018-03-02T09:14:43.411Z,30.00
2018-03-02T09:17:14.353Z,30.07
2018-03-02T09:19:42.825Z,32.03
2018-03-02T09:22:12.392Z,30.80
2018-03-02T09:24:40.629Z,31.50
2018-03-02T09:27:09.008Z,32.95
2018-03-02T09:29:37.244Z,33.40
2018-03-02T09:32:05.481Z,30.98
2018-03-02T09:37:09.000Z,33.75
2018-03-02T09:39:37.232Z,33.30
2018-03-02T09:42:05.471Z,34.08
2018-03-02T09:44:33.865Z,30.88
2018-03-02T09:47:02.092Z,30.48
2018-03-02T09:49:31.103Z,31.92
2018-03-02T09:52:02.414Z,32.17
2018-03-02T09:54:30.649Z,33.78
2018-03-02T09:56:59.288Z,32.45
2018-03-02T09:59:27.928Z,32.60
2018-03-02T10:01:56.169Z,31.42
2018-03-02T10:04:24.828Z,32.65
2018-03-02T10:06:54.473Z,31.80
2018-03-02T10:09:22.707Z,32.30
2018-03-02T10:11:52.312Z,30.50
2018-03-02T10:14:22.440Z,35.67
2018-03-02T10:16:51.447Z,32.23
2018-03-02T10:19:20.008Z,33.30
2018-03-02T10:21:48.375Z,32.80
2018-03-02T10:24:17.380Z,30.97
2018-03-02T10:26:46.809Z,32.60
2018-03-02T10:29:16.808Z,29.07
2018-03-02T10:31:45.041Z,31.87
2018-03-02T10:34:13.278Z,33.13
2018-03-02T10:36:41.652Z,31.33
2018-03-02T10:39:09.879Z,31.77
2018-03-02T10:41:38.163Z,31.87
2018-03-02T10:44:06.780Z,32.60
2018-03-02T10:46:35.781Z,33.90
2018-03-02T10:49:04.408Z,32.83
2018-03-02T10:51:34.136Z,32.50
2018-03-02T10:54:02.244Z,32.80
2018-03-02T10:56:31.240Z,33.00
2018-03-02T10:59:00.588Z,33.00
2018-03-02T11:01:30.328Z,33.10
2018-03-02T11:04:01.814Z,33.90
2018-03-02T11:06:30.437Z,31.90
2018-03-02T11:08:58.684Z,33.07
2018-03-02T11:11:27.544Z,33.40
2018-03-02T11:13:55.784Z,34.50
2018-03-02T11:16:24.029Z,31.70
2018-03-02T11:18:54.413Z,33.60
2018-03-02T11:21:23.339Z,32.07
2018-03-02T11:25:34.647Z,33.00
2018-03-02T11:28:03.521Z,33.97
2018-03-02T11:30:32.149Z,35.17
2018-03-02T11:33:02.848Z,33.07
2018-03-02T11:35:30.970Z,32.93
2018-03-02T11:37:59.952Z,33.07
2018-03-02T11:40:30.551Z,33.17
2018-03-02T11:42:58.657Z,32.83
2018-03-02T11:45:26.893Z,33.07
2018-03-02T11:47:57.440Z,31.93
2018-03-02T11:50:26.437Z,33.67
2018-03-02T11:52:54.676Z,32.90
2018-03-02T11:55:23.271Z,33.13
2018-03-02T11:57:52.851Z,31.20
2018-03-02T12:00:20.965Z,34.50
2018-03-02T12:02:50.044Z,33.53
2018-03-02T12:05:18.276Z,30.53
2018-03-02T12:07:47.273Z,30.90
2018-03-02T12:10:17.011Z,32.40
2018-03-02T12:12:46.472Z,33.20
2018-03-02T12:15:14.580Z,32.40
2018-03-02T12:17:43.696Z,33.17
2018-03-02T12:20:12.317Z,32.67
2018-03-02T12:22:49.283Z,32.77
2018-03-02T12:25:18.645Z,33.77
2018-03-02T12:27:47.272Z,32.47
2018-03-02T12:30:17.208Z,32.70
2018-03-02T12:32:46.571Z,32.83
2018-03-02T12:35:15.568Z,31.93
2018-03-02T12:37:45.454Z,31.97
2018-03-02T12:40:13.688Z,29.93
2018-03-02T12:42:42.683Z,32.07
2018-03-02T12:45:12.152Z,32.20
2018-03-02T12:47:41.148Z,32.90
2018-03-02T12:50:09.385Z,34.00
2018-03-02T12:52:38.696Z,31.30
2018-03-02T12:55:07.349Z,31.23
2018-03-02T12:57:35.556Z,32.93
2018-03-02T13:00:04.151Z,34.60
2018-03-02T13:02:33.857Z,31.93
2018-03-02T13:05:02.853Z,33.47
2018-03-02T13:07:32.364Z,31.13
2018-03-02T13:10:00.600Z,31.37
2018-03-02T13:12:28.843Z,30.75
2018-03-02T13:17:32.181Z,31.90
2018-03-02T13:20:00.420Z,30.92
2018-03-02T13:22:41.248Z,29.25
2018-03-02T13:25:10.934Z,30.80
2018-03-02T13:27:51.999Z,29.77
2018-03-02T13:30:21.008Z,32.35
2018-03-02T13:33:02.233Z,32.17
2018-03-02T13:35:30.468Z,31.35
2018-03-02T13:37:59.468Z,31.10
2018-03-02T13:40:40.137Z,31.90
2018-03-02T13:43:09.514Z,30.77
2018-03-02T13:45:37.752Z,32.35
2018-03-02T13:48:25.551Z,34.55
2018-03-02T13:50:54.456Z,30.45
2018-03-02T13:53:22.688Z,33.80
2018-03-02T13:55:51.079Z,31.33
2018-03-02T13:58:20.449Z,32.25
2018-03-02T14:00:48.691Z,31.48
2018-03-02T14:03:29.484Z,30.33
2018-03-02T14:05:57.717Z,33.33
2018-03-02T14:08:27.095Z,31.62
2018-03-02T14:10:55.464Z,32.50
2018-03-02T14:13:23.700Z,30.98
2018-03-02T14:15:53.427Z,31.37
2018-03-02T14:18:22.419Z,30.23
2018-03-02T14:20:51.052Z,33.63
2018-03-02T14:23:19.285Z,31.62
2018-03-02T14:25:51.053Z,33.05
2018-03-02T14:28:19.676Z,32.60
2018-03-02T14:30:48.802Z,32.40
2018-03-02T14:33:18.821Z,32.30
2018-03-02T14:35:48.560Z,31.27
2018-03-02T14:38:18.700Z,30.12
2018-03-02T14:40:47.333Z,30.50
2018-03-02T14:43:16.332Z,31.42
2018-03-02T14:45:45.590Z,30.60
2018-03-02T14:48:14.220Z,32.65
2018-03-02T14:50:43.266Z,31.40
2018-03-02T14:53:14.737Z,31.33
2018-03-02T14:55:42.968Z,32.15
2018-03-02T14:58:12.547Z,30.77
2018-03-02T15:00:42.462Z,32.53
2018-03-02T15:03:11.088Z,32.60
2018-03-02T15:05:39.320Z,30.98
2018-03-02T15:08:07.872Z,28.65
2018-03-02T15:10:37.249Z,27.98
2018-03-02T15:13:05.476Z,32.30
2018-03-02T15:15:34.629Z,30.20
2018-03-02T15:18:02.876Z,32.35
2018-03-02T15:20:32.253Z,29.70
2018-03-02T15:25:37.657Z,30.33
2018-03-02T15:28:06.535Z,30.45
2018-03-02T15:30:34.764Z,32.53
2018-03-02T15:33:03.605Z,31.52
2018-03-02T15:35:32.613Z,31.45
2018-03-02T15:38:01.264Z,30.95
2018-03-02T15:40:32.035Z,29.92
2018-03-02T15:43:00.664Z,31.77
2018-03-02T15:45:29.296Z,31.17
2018-03-02T15:47:57.673Z,31.20
2018-03-02T15:50:25.908Z,29.27
2018-03-02T15:52:55.280Z,28.62
2018-03-02T15:55:23.864Z,29.00
2018-03-02T15:57:52.496Z,32.13
2018-03-02T16:00:20.736Z,29.52
2018-03-02T16:02:49.130Z,30.27
2018-03-02T16:05:17.772Z,30.85
2018-03-02T16:07:46.000Z,31.02
2018-03-02T16:10:15.736Z,28.90
2018-03-02T16:12:44.373Z,30.95
2018-03-02T16:15:12.606Z,31.92
2018-03-02T16:17:40.989Z,31.10
2018-03-02T16:20:09.252Z,28.95
2018-03-02T16:22:38.638Z,32.20
2018-03-02T16:25:08.384Z,31.55
2018-03-02T16:27:37.265Z,29.65
2018-03-02T16:30:09.512Z,29.95
2018-03-02T16:32:37.774Z,29.30
2018-03-02T16:35:08.957Z,32.83
2018-03-02T16:37:39.101Z,29.90
2018-03-02T16:40:08.100Z,30.52
2018-03-02T16:42:36.337Z,30.92
2018-03-02T16:45:04.845Z,30.10
2018-03-02T16:47:33.853Z,30.45
2018-03-02T16:50:02.476Z,31.35
2018-03-02T16:52:32.534Z,30.52
2018-03-02T16:55:00.776Z,28.38
2018-03-02T16:57:29.009Z,31.27
2018-03-02T16:59:58.653Z,28.75
2018-03-02T17:02:26.886Z,29.42
2018-03-02T17:04:55.143Z,30.75
2018-03-02T17:07:24.593Z,31.85
2018-03-02T17:09:52.915Z,30.70
2018-03-02T17:12:21.192Z,28.70
2018-03-02T17:14:53.107Z,31.35
2018-03-02T17:17:22.108Z,30.35
2018-03-02T17:19:50.345Z,33.35
2018-03-02T17:22:19.872Z,30.77
2018-03-02T17:24:49.614Z,30.27
2018-03-02T17:27:17.844Z,32.47
2018-03-02T17:29:46.224Z,31.48
2018-03-02T17:32:15.175Z,31.58
2018-03-02T17:34:44.537Z,32.80
2018-03-02T17:37:13.097Z,31.58
2018-03-02T17:39:42.105Z,30.45
2018-03-02T17:42:11.177Z,30.42
2018-03-02T17:47:13.509Z,31.85
2018-03-02T17:49:42.543Z,30.48
2018-03-02T17:52:11.531Z,33.55
2018-03-02T17:54:42.134Z,31.50
2018-03-02T17:57:10.764Z,33.90
2018-03-02T17:59:39.005Z,32.58
2018-03-02T18:02:07.676Z,30.20
2018-03-02T18:04:35.945Z,34.50
2018-03-02T18:07:04.225Z,31.83
2018-03-02T18:09:34.183Z,31.77
2018-03-02T18:12:02.465Z,32.65
2018-03-02T18:14:30.739Z,31.62
2018-03-02T18:17:00.470Z,31.80
2018-03-02T18:19:30.213Z,32.45
2018-03-02T18:21:58.473Z,34.17
2018-03-02T18:24:27.036Z,33.08
2018-03-02T18:26:55.264Z,35.80
2018-03-02T18:29:23.498Z,32.35
2018-03-02T18:31:53.545Z,32.95
2018-03-02T18:34:22.764Z,32.92
2018-03-02T18:36:51.006Z,31.62
2018-03-02T18:39:20.502Z,34.22
2018-03-02T18:41:49.459Z,33.17
2018-03-02T18:44:18.084Z,32.40
2018-03-02T18:46:48.349Z,34.63
2018-03-02T18:49:17.927Z,34.60
2018-03-02T18:51:46.032Z,34.10
2018-03-02T18:54:14.408Z,36.78
2018-03-02T18:56:43.418Z,32.95
2018-03-02T18:59:11.651Z,32.67
2018-03-02T19:04:14.594Z,36.42
2018-03-02T19:06:42.821Z,33.92
2018-03-02T19:09:11.052Z,34.28
2018-03-02T19:11:39.420Z,35.08
2018-03-02T19:14:08.098Z,33.55
2018-03-02T19:16:36.285Z,36.33
2018-03-02T19:19:04.593Z,34.75
2018-03-02T19:21:33.220Z,34.00
2018-03-02T19:24:01.453Z,36.63
2018-03-02T19:29:06.545Z,33.55
2018-03-02T19:31:36.135Z,34.80
2018-03-02T19:34:05.744Z,37.35
2018-03-02T19:36:39.256Z,34.83
2018-03-02T19:39:07.880Z,33.58
2018-03-02T19:41:37.616Z,35.45
2018-03-02T19:44:09.000Z,38.38
2018-03-02T19:46:37.625Z,36.80
2018-03-02T19:49:05.860Z,32.90
2018-03-02T19:51:34.443Z,36.97
2018-03-02T19:54:04.178Z,39.83
2018-03-02T19:56:32.805Z,42.70
2018-03-02T19:59:03.152Z,37.88
2018-03-02T20:01:32.383Z,38.40
2018-03-02T20:04:02.001Z,35.40
2018-03-02T20:06:30.825Z,37.00
2018-03-02T20:08:59.040Z,36.72
2018-03-02T20:11:34.219Z,38.63
2018-03-02T20:14:03.216Z,34.65
2018-03-02T20:16:31.436Z,37.28
2018-03-02T20:19:00.112Z,38.30
2018-03-02T20:21:29.108Z,36.47
2018-03-02T20:23:57.332Z,37.30
2018-03-02T20:26:27.479Z,37.47
2018-03-02T20:28:56.471Z,39.55
2018-03-02T20:31:24.692Z,34.92
2018-03-02T20:33:54.231Z,35.83
2018-03-02T20:36:23.964Z,36.33
2018-03-02T20:38:52.979Z,35.85
2018-03-02T20:41:22.847Z,39.70
2018-03-02T20:43:51.332Z,37.72
2018-03-02T20:46:20.325Z,37.60
2018-03-02T20:48:48.669Z,37.13
2018-03-02T20:51:16.904Z,38.05
2018-03-02T20:53:45.128Z,37.70
2018-03-02T21:01:23.120Z,39.35
2018-03-02T21:03:51.344Z,38.95
2018-03-02T21:06:19.580Z,40.10
2018-03-02T21:08:49.728Z,44.25
2018-03-02T21:11:18.716Z,42.30
2018-03-02T21:13:47.709Z,42.88
2018-03-02T21:16:16.963Z,43.17
2018-03-02T21:18:45.958Z,44.47
2018-03-02T21:21:14.189Z,47.13
2018-03-02T21:23:42.561Z,45.33
2018-03-02T21:26:12.304Z,49.05
2018-03-02T21:28:40.540Z,48.58
2018-03-02T21:31:09.984Z,58.22
2018-03-02T21:33:38.977Z,47.35
2018-03-02T21:36:07.211Z,49.03
2018-03-02T21:38:36.308Z,53.35
2018-03-02T21:41:06.096Z,55.30
2018-03-02T21:43:35.464Z,53.58
2018-03-02T21:46:03.848Z,57.92
2018-03-02T21:48:32.081Z,53.65
2018-03-02T21:51:01.792Z,51.67
2018-03-02T21:53:31.060Z,55.47
2018-03-02T21:56:00.056Z,51.15
2018-03-02T21:58:28.293Z,52.65
2018-03-02T22:00:56.891Z,46.33
2018-03-02T22:03:25.881Z,49.83
2018-03-02T22:05:54.112Z,49.80
2018-03-02T22:08:23.636Z,50.60
2018-03-02T22:10:52.632Z,50.38
2018-03-02T22:13:20.860Z,52.80
2018-03-02T22:15:50.520Z,58.70
2018-03-02T22:18:18.752Z,51.03
2018-03-02T22:20:46.980Z,56.30
2018-03-02T22:23:16.304Z,54.15
2018-03-02T22:25:44.928Z,51.67
2018-03-02T22:28:13.923Z,54.75
2018-03-02T22:30:42.336Z,51.50
2018-03-02T22:33:10.933Z,54.05
2018-03-02T22:35:39.165Z,53.10
2018-03-02T22:38:09.547Z,53.38
2018-03-02T22:40:38.423Z,52.60
2018-03-02T22:43:10.001Z,57.20
2018-03-02T22:45:38.996Z,53.42
2018-03-02T22:48:08.000Z,57.70
2018-03-02T22:50:36.456Z,57.45
2018-03-02T22:53:06.192Z,56.40
2018-03-02T22:55:35.189Z,58.10
2018-03-02T22:58:04.412Z,58.80
2018-03-02T23:00:33.404Z,59.30
2018-03-02T23:03:01.629Z,60.85
2018-03-02T23:05:31.436Z,56.58
2018-03-02T23:07:59.666Z,58.45
2018-03-02T23:10:27.897Z,58.75
2018-03-02T23:12:57.124Z,59.38
2018-03-02T23:15:26.124Z,58.47
2018-03-02T23:17:55.120Z,64.35
2018-03-02T23:20:23.489Z,57.38
2018-03-02T23:22:51.716Z,59.15
2018-03-02T23:25:19.949Z,61.10
2018-03-02T23:27:48.889Z,58.65
2018-03-02T23:30:18.472Z,58.92
2018-03-02T23:32:47.713Z,59.45
2018-03-02T23:35:16.557Z,56.83
2018-03-02T23:37:45.920Z,57.72
2018-03-02T23:40:14.553Z,60.22
2018-03-02T23:42:42.965Z,60.00
2018-03-02T23:45:19.363Z,58.22
2018-03-02T23:47:47.892Z,61.10
2018-03-02T23:50:17.258Z,57.47
2018-03-02T23:52:46.619Z,62.45
2018-03-02T23:55:14.929Z,64.03
2018-03-02T23:57:43.165Z,60.80
